ADL weather

Adelaide International Airport
Adelaide, South Australia, Australia

Public forecast

Using degrees Celsius for public forecast. Weather courtesy of forecast.io.

METAR (pilot weather report)

Retrieved 2017/12/11 21:30 UTC (22 minutes ago):

YPAD 112130Z 02005KT CAVOK 21/09 Q1015 NOSIG

TAF (pilot weather forecast)

Retrieved 2017/12/11 18:00 UTC (4 hours ago):

TAF YPAD 111657Z 1118/1224 VRB05KT CAVOK FM120100 24010KT CAVOK FM121000 10008KT CAVOK FM121200 04012KT CAVOK